Time;durP1;ratioP1;P1;durP2;ratioP2;P2;SDS_P1;SDS_P2;PMS_P1;PMS_P2;Temp;Humidity;BMP_temperature;BMP_pressure;BME280_temperature;BME280_humidity;BME280_pressure;Samples;Min_cycle;Max_cycle;Signal;HPM_P1;HPM_P2
2022/06/06 00:00:34;;;;;;;5.70;4.73;;;;;;;25.81;43.92;94950.47;6220441;28;104198;-63
2022/06/06 00:03:38;;;;;;;6.80;6.30;;;;;;;25.95;43.55;94943.69;6238838;28;103014;-63
2022/06/06 00:06:42;;;;;;;8.10;7.40;;;;;;;26.03;43.59;94939.38;6228434;27;103323;-63
2022/06/06 00:09:47;;;;;;;6.67;6.07;;;;;;;26.08;43.93;94927.66;6237670;28;103192;-63
2022/06/06 00:12:50;;;;;;;7.10;6.40;;;;;;;26.15;43.39;94941.28;6238123;28;103180;-63
2022/06/06 00:15:53;;;;;;;7.47;6.80;;;;;;;26.15;43.89;94939.38;6238174;28;103241;-63
2022/06/06 00:18:56;;;;;;;8.30;7.60;;;;;;;26.12;43.76;94941.97;6228535;27;103543;-63
2022/06/06 00:22:00;;;;;;;7.70;7.10;;;;;;;26.12;43.98;94945.44;6237449;28;103420;-62
2022/06/06 00:25:05;;;;;;;5.43;5.03;;;;;;;26.13;43.50;94933.59;6237906;28;104125;-63
2022/06/06 00:28:08;;;;;;;5.53;4.30;;;;;;;26.15;43.56;94925.19;6234733;27;104628;-62
2022/06/06 00:34:53;;;;;;;4.60;4.30;;;;;;;26.13;43.44;94925.53;6239124;28;104259;-63
2022/06/06 00:37:57;;;;;;;5.00;4.63;;;;;;;26.14;43.66;94923.63;6237483;28;102999;-64
2022/06/06 00:41:01;;;;;;;5.17;4.77;;;;;;;26.11;43.18;94897.50;6227285;28;103273;-63
2022/06/06 00:44:07;;;;;;;4.80;4.40;;;;;;;26.11;43.28;94889.44;6237212;28;103052;-63
2022/06/06 00:47:20;;;;;;;4.13;3.83;;;;;;;26.11;43.19;94882.19;6237938;28;103214;-63
2022/06/06 00:50:29;;;;;;;4.90;4.50;;;;;;;26.11;42.85;94873.34;6238031;28;103092;-63
2022/06/06 00:53:40;;;;;;;5.30;4.80;;;;;;;26.08;43.11;94874.81;6227419;27;104165;-62
2022/06/06 00:56:48;;;;;;;4.20;3.80;;;;;;;26.00;43.35;94878.38;6237465;28;103358;-62
2022/06/06 00:59:54;;;;;;;3.57;3.30;;;;;;;25.96;42.92;94872.88;6235673;27;103267;-63
2022/06/06 01:03:01;;;;;;;6.20;3.57;;;;;;;25.92;42.84;94865.81;6202929;28;103238;-62
2022/06/06 01:06:07;;;;;;;4.23;3.87;;;;;;;25.79;42.85;94856.22;6211492;28;103021;-63
2022/06/06 01:09:11;;;;;;;4.10;3.73;;;;;;;25.86;42.45;94851.84;6213131;28;104027;-63
2022/06/06 01:12:19;;;;;;;3.43;3.23;;;;;;;25.96;42.56;94848.72;6211872;28;102699;-63
2022/06/06 01:15:26;;;;;;;4.63;4.33;;;;;;;25.94;42.44;94834.09;6202063;28;103755;-63
2022/06/06 01:18:37;;;;;;;4.23;3.83;;;;;;;25.92;42.64;94833.66;6212565;28;103241;-63
2022/06/06 01:22:03;;;;;;;4.40;4.00;;;;;;;25.93;43.03;94829.84;6211417;28;102930;-63
2022/06/06 01:25:54;;;;;;;6.57;6.07;;;;;;;26.02;42.54;94816.34;6207221;27;103252;-63
2022/06/06 01:29:05;;;;;;;5.50;5.00;;;;;;;25.76;43.29;94795.22;6141875;28;103099;-63
2022/06/06 01:32:12;;;;;;;6.10;4.40;;;;;;;25.73;42.91;94810.09;6212415;28;104273;-63
2022/06/06 01:35:24;;;;;;;5.13;4.73;;;;;;;25.85;43.02;94823.47;6211679;28;103098;-63
2022/06/06 01:38:27;;;;;;;8.97;8.23;;;;;;;25.91;42.99;94819.47;6201123;28;104180;-63
2022/06/06 01:41:41;;;;;;;11.10;10.20;;;;;;;25.96;43.08;94819.22;6211732;28;103065;-63
2022/06/06 01:44:52;;;;;;;9.37;8.60;;;;;;;26.00;42.93;94827.41;6210923;28;103158;-61
2022/06/06 01:48:06;;;;;;;7.30;6.70;;;;;;;25.95;43.30;94942.91;6206908;27;103129;-62
2022/06/06 01:51:10;;;;;;;6.20;5.70;;;;;;;25.90;43.38;94957.31;6206516;28;102986;-61
2022/06/06 01:54:17;;;;;;;4.90;4.50;;;;;;;25.91;43.50;94977.66;6210852;28;103409;-62
2022/06/06 01:57:20;;;;;;;5.63;5.10;;;;;;;25.90;44.00;94976.09;6211643;28;102808;-61
2022/06/06 02:00:25;;;;;;;6.90;5.60;;;;;;;25.84;45.28;94947.13;6205615;27;104183;-61
2022/06/06 02:03:28;;;;;;;6.07;5.47;;;;;;;25.90;45.67;94919.00;6235706;28;103253;-61
2022/06/06 02:06:32;;;;;;;7.63;5.93;;;;;;;25.94;45.84;94911.84;6235275;27;105373;-61
2022/06/06 02:09:36;;;;;;;8.20;5.90;;;;;;;26.02;46.11;94929.75;6235319;28;103411;-62
2022/06/06 02:12:40;;;;;;;13.43;7.50;;;;;;;26.02;45.71;94945.06;6224048;28;103308;-62
2022/06/06 02:15:45;;;;;;;9.37;6.60;;;;;;;26.03;46.33;94952.00;6236141;28;104175;-61
2022/06/06 02:18:49;;;;;;;9.60;6.93;;;;;;;25.97;46.56;94965.59;6235717;28;103126;-61
2022/06/06 02:21:52;;;;;;;8.80;6.50;;;;;;;25.98;46.45;94977.88;6230420;27;104106;-61
2022/06/06 02:24:55;;;;;;;9.27;6.30;;;;;;;25.97;46.27;94987.06;6229389;28;103029;-62
2022/06/06 02:27:59;;;;;;;9.47;6.43;;;;;;;26.04;46.32;95005.28;6234478;28;103309;-61
2022/06/06 02:31:03;;;;;;;9.20;7.00;;;;;;;26.07;47.12;95034.16;6234288;28;103138;-61
2022/06/06 02:34:08;;;;;;;7.40;6.30;;;;;;;26.11;47.13;95051.16;6225022;27;104229;-61
2022/06/06 02:37:12;;;;;;;7.07;5.90;;;;;;;26.08;47.39;95067.13;6235003;28;103339;-61
2022/06/06 02:40:18;;;;;;;7.00;6.30;;;;;;;26.05;48.15;95062.44;6234817;28;103246;-61
2022/06/06 02:43:22;;;;;;;7.30;5.60;;;;;;;26.07;47.35;95039.53;6233965;28;103047;-62
2022/06/06 02:46:26;;;;;;;8.07;6.97;;;;;;;26.04;47.87;95016.03;6223649;27;102990;-61
2022/06/06 02:49:30;;;;;;;8.03;6.73;;;;;;;25.98;48.23;94995.88;6234739;28;104047;-62
2022/06/06 02:52:34;;;;;;;9.17;7.17;;;;;;;25.91;48.90;94964.25;6235584;28;103373;-61
2022/06/06 02:55:38;;;;;;;11.03;6.43;;;;;;;25.84;49.70;94955.97;6233920;28;103304;-62
2022/06/06 02:58:41;;;;;;;7.00;5.73;;;;;;;24.71;53.21;94929.34;6225783;28;104553;-61
2022/06/06 03:01:45;;;;;;;6.83;6.13;;;;;;;23.38;57.70;94913.63;6217445;28;103498;-61
2022/06/06 03:04:49;;;;;;;7.77;6.87;;;;;;;23.86;56.52;94910.69;6209201;28;103045;-61
2022/06/06 03:08:13;;;;;;;11.07;6.90;;;;;;;24.67;53.38;94909.63;6199684;28;103208;-62
2022/06/06 03:11:31;;;;;;;9.90;5.90;;;;;;;25.06;51.95;94921.06;6209311;28;102683;-61
2022/06/06 03:14:50;;;;;;;6.70;5.63;;;;;;;25.48;52.13;94951.28;6209326;28;103383;-63
2022/06/06 03:21:45;;;;;;;9.93;7.10;;;;;;;25.90;50.53;95002.13;6208189;28;103614;-62
2022/06/06 03:25:01;;;;;;;10.70;8.20;;;;;;;25.94;51.08;94992.31;6214149;28;103158;-63
2022/06/06 03:28:12;;;;;;;10.70;7.97;;;;;;;25.99;51.48;95000.91;6212984;28;103691;-62
2022/06/06 03:31:31;;;;;;;11.70;8.30;;;;;;;25.93;51.31;95002.25;6202776;28;105233;-62
2022/06/06 03:34:43;;;;;;;7.20;6.43;;;;;;;25.93;51.21;95001.47;6212456;28;103083;-62
2022/06/06 03:37:54;;;;;;;7.97;7.17;;;;;;;25.95;51.17;95013.41;6213893;28;103206;-62
2022/06/06 03:41:08;;;;;;;7.73;6.10;;;;;;;24.74;53.99;95016.22;6213210;28;103262;-62
2022/06/06 03:44:21;;;;;;;11.00;6.10;;;;;;;24.73;53.81;95011.97;6207741;28;104240;-65
2022/06/06 03:47:34;;;;;;;8.40;6.07;;;;;;;24.88;53.27;95002.59;6213408;28;103187;-62
2022/06/06 03:50:45;;;;;;;8.33;6.50;;;;;;;25.11;52.32;94984.34;6213589;28;103515;-62
2022/06/06 03:53:54;;;;;;;6.90;6.10;;;;;;;25.21;51.66;94975.91;6202304;28;103996;-62
2022/06/06 03:57:12;;;;;;;9.87;5.60;;;;;;;25.33;51.77;94986.66;6211119;28;104071;-62
2022/06/06 04:00:16;;;;;;;10.60;7.63;;;;;;;25.50;51.04;94989.22;6215214;28;104139;-62
2022/06/06 04:03:20;;;;;;;8.47;7.60;;;;;;;25.60;50.23;94988.06;6235364;28;102968;-62
2022/06/06 04:06:28;;;;;;;11.73;8.27;;;;;;;25.62;50.56;94983.94;6224163;27;103180;-63
2022/06/06 04:09:33;;;;;;;9.67;7.87;;;;;;;25.66;50.12;94990.19;6237437;28;103137;-61
2022/06/06 04:12:50;;;;;;;9.20;8.40;;;;;;;25.72;50.38;94979.28;6237474;28;103248;-62
2022/06/06 04:16:01;;;;;;;8.87;7.70;;;;;;;25.72;50.18;94976.59;6229447;28;103946;-62
2022/06/06 04:19:17;;;;;;;16.43;14.97;;;;;;;25.76;50.38;94969.47;6237156;28;103429;-63
2022/06/06 04:22:33;;;;;;;21.00;19.00;;;;;;;25.79;50.12;94968.81;6237853;28;103055;-62
2022/06/06 04:25:46;;;;;;;16.07;14.60;;;;;;;25.84;50.27;94976.63;6237251;28;103470;-63
2022/06/06 04:29:03;;;;;;;13.07;11.77;;;;;;;25.79;50.20;94982.19;6226343;27;103446;-63
2022/06/06 04:32:16;;;;;;;15.23;13.90;;;;;;;25.81;50.48;94977.28;6237479;28;103051;-63
2022/06/06 04:35:27;;;;;;;16.60;14.90;;;;;;;25.77;50.84;94969.13;6237581;28;102791;-63
2022/06/06 04:38:41;;;;;;;18.27;16.57;;;;;;;25.78;50.46;94968.00;6229448;27;103567;-63
2022/06/06 04:41:49;;;;;;;13.77;12.57;;;;;;;25.83;50.12;94972.38;6236726;28;104291;-63
2022/06/06 04:45:03;;;;;;;12.83;11.43;;;;;;;25.75;50.95;94975.94;6238213;28;105984;-63
2022/06/06 04:48:07;;;;;;;11.23;10.33;;;;;;;25.63;50.71;94987.41;6236969;28;103249;-63
2022/06/06 04:51:12;;;;;;;12.17;10.80;;;;;;;25.56;51.30;94985.25;6227884;28;103666;-62
2022/06/06 04:54:19;;;;;;;11.93;10.63;;;;;;;25.59;50.80;94987.28;6237189;28;103284;-63
2022/06/06 04:57:31;;;;;;;11.13;9.53;;;;;;;25.69;50.89;94986.06;6237484;28;104562;-63
2022/06/06 05:00:36;;;;;;;10.77;8.43;;;;;;;25.73;50.90;94991.56;6229574;27;104910;-64
2022/06/06 05:03:39;;;;;;;8.67;7.87;;;;;;;25.75;50.85;95002.75;6206319;28;103205;-63
2022/06/06 05:07:20;;;;;;;9.70;8.60;;;;;;;25.78;50.50;94992.16;6211851;28;102966;-63
2022/06/06 05:10:49;;;;;;;7.97;7.17;;;;;;;25.80;50.49;94994.50;6163762;28;103210;-62
2022/06/06 05:14:07;;;;;;;8.50;7.60;;;;;;;25.82;50.72;94998.41;6193850;27;103101;-62
2022/06/06 05:17:34;;;;;;;16.93;15.43;;;;;;;25.86;50.57;95004.66;6212243;28;103053;-62
2022/06/06 05:21:01;;;;;;;11.53;10.40;;;;;;;25.89;50.65;95011.28;6211641;28;103125;-63
2022/06/06 05:24:32;;;;;;;12.60;11.30;;;;;;;25.88;50.50;95004.34;6202545;27;103236;-62
2022/06/06 05:28:04;;;;;;;8.93;8.03;;;;;;;25.82;51.12;95016.38;6211249;28;103180;-62
2022/06/06 05:31:21;;;;;;;8.10;7.30;;;;;;;25.80;51.38;95018.63;6212195;28;103489;-62
2022/06/06 05:34:30;;;;;;;8.27;7.43;;;;;;;25.88;50.90;95013.19;6211504;28;102913;-62
2022/06/06 05:37:47;;;;;;;10.83;8.00;;;;;;;25.97;50.19;95013.88;6201110;28;104007;-63
2022/06/06 05:41:00;;;;;;;7.87;6.97;;;;;;;26.08;49.97;95008.91;6210735;28;103237;-63
2022/06/06 05:44:14;;;;;;;10.33;7.03;;;;;;;26.07;51.51;95015.38;6210431;28;103338;-61
2022/06/06 05:47:28;;;;;;;12.60;8.67;;;;;;;25.96;52.06;95020.34;6200376;27;102859;-61
2022/06/06 05:50:39;;;;;;;12.00;7.23;;;;;;;25.91;52.93;95019.78;6210951;28;102917;-62
2022/06/06 05:54:00;;;;;;;9.33;6.40;;;;;;;26.00;52.32;95015.13;6211336;28;104160;-61
2022/06/06 05:57:26;;;;;;;7.00;5.87;;;;;;;26.08;51.01;95013.50;6210361;28;103180;-62
2022/06/06 06:00:46;;;;;;;9.47;5.70;;;;;;;25.90;51.54;95007.50;6211281;28;103554;-62
2022/06/06 06:04:27;;;;;;;8.80;5.63;;;;;;;26.03;50.82;95019.03;6235740;28;104258;-62
2022/06/06 06:07:38;;;;;;;11.33;6.40;;;;;;;26.03;50.38;95021.72;6211987;28;103433;-62
2022/06/06 06:10:48;;;;;;;6.53;5.30;;;;;;;26.14;50.67;95014.84;6224008;28;103367;-62
2022/06/06 06:14:08;;;;;;;8.30;5.87;;;;;;;26.18;50.40;95019.19;6235715;28;103312;-62
2022/06/06 06:17:14;;;;;;;9.77;8.60;;;;;;;26.00;51.85;95020.50;6234967;28;105543;-61
2022/06/06 06:20:20;;;;;;;8.77;7.90;;;;;;;25.57;53.32;95002.91;6230788;28;103069;-62
2022/06/06 06:23:27;;;;;;;14.63;11.50;;;;;;;25.83;52.04;95012.59;6231678;28;103998;-62
2022/06/06 06:26:31;;;;;;;11.87;10.63;;;;;;;26.06;51.05;94999.63;6235424;28;102833;-62
2022/06/06 06:29:35;;;;;;;17.63;12.33;;;;;;;26.06;52.80;95005.00;6235778;28;104036;-63
2022/06/06 06:33:02;;;;;;;12.93;10.20;;;;;;;25.97;53.10;95007.72;6224500;27;102761;-61
2022/06/06 06:36:14;;;;;;;11.10;7.70;;;;;;;26.06;52.05;95005.00;6235461;28;103341;-61
2022/06/06 06:39:34;;;;;;;10.00;8.30;;;;;;;26.22;51.11;94995.19;6235526;28;104603;-64
2022/06/06 06:42:58;;;;;;;9.10;7.87;;;;;;;26.29;51.10;94990.03;6231822;28;103206;-61
2022/06/06 06:46:05;;;;;;;8.50;7.60;;;;;;;26.34;51.05;94983.66;6229720;28;103278;-61
2022/06/06 06:49:33;;;;;;;8.03;7.23;;;;;;;26.36;50.92;94987.56;6234540;28;104083;-61
2022/06/06 06:52:51;;;;;;;8.67;7.07;;;;;;;26.46;50.48;94975.63;6234174;27;103073;-61
2022/06/06 06:56:05;;;;;;;7.73;6.93;;;;;;;26.57;50.82;94969.50;6224224;28;103888;-61
2022/06/06 06:59:24;;;;;;;10.10;7.17;;;;;;;26.65;50.84;94970.50;6234389;27;103027;-61
2022/06/06 07:09:38;;;;;;;8.10;7.30;;;;;;;26.82;50.00;94954.16;6208998;28;103155;-61
2022/06/06 07:12:59;;;;;;;10.87;6.97;;;;;;;26.90;50.60;94957.06;6211071;28;103632;-61
2022/06/06 07:16:12;;;;;;;9.90;8.00;;;;;;;26.95;50.24;94960.31;6209693;28;103029;-61
2022/06/06 07:19:18;;;;;;;8.53;7.10;;;;;;;27.00;50.25;94954.69;6199673;28;105251;-62
2022/06/06 07:22:24;;;;;;;7.77;6.77;;;;;;;27.03;49.69;94945.94;6208958;28;103208;-61
2022/06/06 07:25:28;;;;;;;9.33;7.67;;;;;;;27.08;49.68;94934.19;6209041;28;103268;-61
2022/06/06 07:28:31;;;;;;;9.60;7.50;;;;;;;27.10;49.33;94930.03;6203521;27;103291;-61
2022/06/06 07:32:05;;;;;;;8.60;7.70;;;;;;;27.15;49.73;94937.06;6204178;28;103253;-61
2022/06/06 07:35:19;;;;;;;8.93;8.10;;;;;;;27.22;49.78;94939.16;6209552;28;102973;-61
2022/06/06 07:38:34;;;;;;;8.47;7.17;;;;;;;27.17;49.25;94946.34;6208716;28;103269;-61
2022/06/06 07:41:54;;;;;;;8.33;7.53;;;;;;;27.20;49.30;94952.94;6198664;28;103019;-61
2022/06/06 07:45:15;;;;;;;9.00;7.43;;;;;;;27.25;49.67;94955.41;6209952;28;104029;-61
2022/06/06 07:48:44;;;;;;;7.40;6.70;;;;;;;27.29;49.17;94947.47;6209327;28;104339;-61
2022/06/06 07:52:00;;;;;;;8.53;7.40;;;;;;;27.33;49.26;94951.03;6198858;27;103844;-61
2022/06/06 07:55:13;;;;;;;8.70;7.80;;;;;;;27.38;48.66;94945.41;6208338;28;103393;-61
2022/06/06 07:58:20;;;;;;;8.70;7.90;;;;;;;27.40;49.09;94954.72;6208732;28;102732;-60
2022/06/06 08:01:37;;;;;;;9.93;7.80;;;;;;;27.40;49.25;94952.03;6222064;28;103187;-64
2022/06/06 08:04:59;;;;;;;9.10;8.00;;;;;;;27.35;48.94;94949.56;6227573;28;103019;-61
2022/06/06 08:08:09;;;;;;;10.97;8.00;;;;;;;27.32;49.59;94961.00;6237938;28;104238;-61
2022/06/06 08:11:20;;;;;;;8.10;7.30;;;;;;;27.30;49.24;94967.84;6238057;28;104041;-61
2022/06/06 08:14:34;;;;;;;8.33;7.00;;;;;;;27.24;49.40;94961.91;6229484;27;103293;-61
2022/06/06 08:17:56;;;;;;;8.23;7.53;;;;;;;27.22;48.90;94974.09;6237840;28;103245;-60
2022/06/06 08:21:06;;;;;;;9.60;8.50;;;;;;;27.18;49.59;94963.25;6238636;28;104558;-61
2022/06/06 08:24:15;;;;;;;8.67;7.77;;;;;;;27.16;49.31;94974.34;6238045;28;104180;-61
2022/06/06 08:27:42;;;;;;;8.13;7.33;;;;;;;27.10;49.46;94983.00;6226211;28;104927;-61
2022/06/06 08:30:48;;;;;;;9.07;8.23;;;;;;;27.06;49.29;94987.47;6237002;28;103356;-61
2022/06/06 08:33:51;;;;;;;8.10;7.30;;;;;;;27.06;49.09;94990.16;6237901;28;102975;-61
2022/06/06 08:37:19;;;;;;;7.73;7.13;;;;;;;27.01;49.49;94990.38;6228948;28;104125;-61
2022/06/06 08:40:53;;;;;;;9.40;7.40;;;;;;;26.98;49.56;94986.47;6237459;28;104191;-61
2022/06/06 08:44:26;;;;;;;8.30;7.50;;;;;;;26.97;49.69;94976.06;6232441;28;103219;-61
2022/06/06 08:47:32;;;;;;;8.53;7.67;;;;;;;26.94;49.25;94977.53;6235384;28;103231;-61
2022/06/06 08:50:59;;;;;;;7.53;6.83;;;;;;;26.92;49.88;94998.59;6232139;28;104348;-62
2022/06/06 08:54:49;;;;;;;7.90;7.10;;;;;;;26.89;49.23;95011.91;6237243;28;104434;-62
2022/06/06 08:58:21;;;;;;;8.00;7.30;;;;;;;26.84;49.38;95050.50;6237107;28;103730;-62
2022/06/06 09:01:45;;;;;;;7.53;6.37;;;;;;;26.82;49.24;95045.47;6211408;27;103468;-61
2022/06/06 09:05:27;;;;;;;8.90;7.03;;;;;;;26.77;49.42;95026.91;6212140;28;103409;-61
2022/06/06 09:09:09;;;;;;;9.23;6.90;;;;;;;26.71;49.44;95014.78;6209087;28;103198;-61
2022/06/06 09:12:51;;;;;;;6.20;5.43;;;;;;;26.63;49.31;95034.50;6199661;28;104874;-61
2022/06/06 09:16:26;;;;;;;10.40;5.70;;;;;;;26.57;49.06;95033.91;6185012;28;103273;-61
2022/06/06 09:20:00;;;;;;;7.77;5.97;;;;;;;26.42;48.61;95058.72;6211495;28;103236;-61
2022/06/06 09:23:29;;;;;;;6.00;4.00;;;;;;;26.51;48.12;95054.00;6200274;28;103199;-61
2022/06/06 09:26:40;;;;;;;4.93;4.30;;;;;;;26.51;47.15;95077.38;6212222;28;102967;-61
2022/06/06 09:30:06;;;;;;;7.80;4.10;;;;;;;26.42;47.44;95080.19;6211394;28;103505;-61
2022/06/06 09:33:40;;;;;;;5.87;4.10;;;;;;;26.25;46.83;95081.16;6206898;28;103125;-61
2022/06/06 09:37:05;;;;;;;6.07;3.80;;;;;;;26.17;47.11;95059.75;6210365;28;104086;-61
2022/06/06 09:40:20;;;;;;;5.87;4.43;;;;;;;26.23;47.08;95053.88;6211418;28;103324;-62
2022/06/06 09:43:34;;;;;;;5.77;3.73;;;;;;;26.35;46.34;95046.94;6211840;28;103330;-61
2022/06/06 09:47:18;;;;;;;14.77;13.10;;;;;;;26.24;46.39;95049.28;6201545;27;103422;-61
2022/06/06 09:50:59;;;;;;;8.47;7.30;;;;;;;26.25;47.48;95051.63;6188985;28;102936;-63
2022/06/06 09:59:03;;;;;;;6.90;5.70;;;;;;;26.22;47.86;95043.47;6200849;28;103699;-61
2022/06/06 10:02:39;;;;;;;6.23;5.10;;;;;;;26.10;47.55;95036.19;6139343;28;102990;-61
2022/06/06 10:06:15;;;;;;;6.50;5.60;;;;;;;26.12;47.18;95036.63;6178304;28;103022;-60
2022/06/06 10:10:03;;;;;;;6.00;5.37;;;;;;;26.14;47.19;95052.38;6225330;28;104754;-61
2022/06/06 10:13:23;;;;;;;5.53;4.73;;;;;;;26.17;47.54;95049.03;6197054;28;103736;-61
2022/06/06 10:16:51;;;;;;;7.23;4.50;;;;;;;26.20;47.27;95078.66;6235644;28;103089;-61
2022/06/06 10:20:21;;;;;;;4.07;3.63;;;;;;;26.07;48.02;95065.56;6224839;27;103240;-63
2022/06/06 10:23:56;;;;;;;6.97;5.47;;;;;;;26.12;47.63;95058.09;6217046;28;102923;-64
2022/06/06 10:27:05;;;;;;;7.00;6.30;;;;;;;26.14;48.41;95061.22;6233772;28;102995;-64
2022/06/06 10:30:17;;;;;;;6.93;6.23;;;;;;;26.12;48.24;95057.31;6229717;28;103299;-63
2022/06/06 10:33:40;;;;;;;6.50;5.30;;;;;;;26.12;47.61;95055.41;6232428;28;103440;-64
2022/06/06 10:37:05;;;;;;;7.17;6.27;;;;;;;26.15;47.04;95056.63;6235344;28;102993;-64
2022/06/06 10:40:31;;;;;;;6.80;6.20;;;;;;;26.16;47.13;95058.19;6235529;28;103729;-63
2022/06/06 10:43:42;;;;;;;7.40;6.80;;;;;;;26.16;47.03;95052.84;6225154;28;103849;-63
2022/06/06 10:46:59;;;;;;;7.87;6.33;;;;;;;26.18;47.19;95058.66;6234584;28;103089;-64
2022/06/06 10:50:10;;;;;;;6.97;5.70;;;;;;;26.20;47.30;95051.84;6235380;28;103175;-64
2022/06/06 10:53:36;;;;;;;11.03;9.73;;;;;;;26.20;47.60;95043.78;6224450;28;103253;-61
2022/06/06 10:57:03;;;;;;;13.57;12.47;;;;;;;26.15;47.80;95033.28;6235379;28;103076;-62
2022/06/06 11:00:18;;;;;;;17.47;15.73;;;;;;;26.12;47.94;95027.78;6231624;28;103578;-60
2022/06/06 11:04:01;;;;;;;14.70;13.50;;;;;;;26.13;48.70;95059.66;6210551;28;104173;-61
2022/06/06 11:07:35;;;;;;;14.13;12.87;;;;;;;26.11;48.46;95059.19;6203648;28;103295;-61
2022/06/06 11:11:16;;;;;;;15.50;13.90;;;;;;;26.06;48.59;95051.38;6209789;28;103473;-61
2022/06/06 11:14:25;;;;;;;14.60;13.30;;;;;;;26.05;49.13;95043.66;6209422;28;103132;-61
2022/06/06 11:17:58;;;;;;;10.70;9.70;;;;;;;26.03;48.93;95043.97;6199897;27;103764;-61
2022/06/06 11:21:35;;;;;;;8.00;7.17;;;;;;;26.04;48.33;95050.88;6208536;28;103124;-62
2022/06/06 11:24:45;;;;;;;8.03;7.33;;;;;;;26.12;48.61;95063.44;6207514;28;103661;-61
2022/06/06 11:28:40;;;;;;;7.97;7.27;;;;;;;26.07;48.30;95050.25;6198067;28;103385;-61
2022/06/06 11:32:14;;;;;;;12.03;9.70;;;;;;;26.06;48.55;95039.84;6209499;28;103727;-61
2022/06/06 11:35:40;;;;;;;7.80;7.10;;;;;;;26.08;48.43;95043.78;6208859;28;103119;-61
2022/06/06 11:39:20;;;;;;;8.27;7.47;;;;;;;26.09;48.87;95031.16;6203298;28;104359;-61
2022/06/06 11:42:44;;;;;;;8.37;7.67;;;;;;;26.10;48.71;95014.72;6213282;28;103140;-62
2022/06/06 11:46:04;;;;;;;6.97;6.43;;;;;;;26.14;48.16;95023.66;6214341;28;104262;-61
2022/06/06 11:49:36;;;;;;;8.03;7.33;;;;;;;26.17;48.67;95039.09;6212759;28;103993;-61
2022/06/06 11:53:20;;;;;;;9.30;8.60;;;;;;;26.19;48.52;95033.38;6207981;28;103299;-62
2022/06/06 11:56:49;;;;;;;11.80;10.83;;;;;;;26.20;48.56;95033.06;6212055;28;104188;-62
2022/06/06 12:00:21;;;;;;;10.40;9.60;;;;;;;26.20;48.71;95037.63;6214209;28;103563;-62
2022/06/06 12:04:08;;;;;;;8.60;7.90;;;;;;;26.19;48.45;95038.75;6227513;27;103253;-62
2022/06/06 12:07:44;;;;;;;6.93;6.27;;;;;;;26.18;48.48;95032.59;6237779;28;103238;-61
2022/06/06 12:11:03;;;;;;;5.87;5.37;;;;;;;26.19;47.89;95028.81;6237950;28;102967;-62
2022/06/06 12:14:25;;;;;;;6.83;6.33;;;;;;;26.22;47.98;95025.47;6226944;27;103455;-62
2022/06/06 12:17:43;;;;;;;6.07;5.57;;;;;;;26.21;47.91;95021.22;6238534;28;104074;-63
2022/06/06 12:21:21;;;;;;;5.63;5.03;;;;;;;26.22;48.03;95024.69;6237949;28;103127;-61
2022/06/06 12:25:12;;;;;;;5.80;5.07;;;;;;;26.23;48.24;95020.91;6195912;28;105790;-61
2022/06/06 12:29:01;;;;;;;6.00;5.40;;;;;;;26.20;48.31;95006.22;6238095;28;104275;-62
2022/06/06 12:32:24;;;;;;;6.33;5.73;;;;;;;26.22;47.74;95006.69;6236887;28;103231;-62
2022/06/06 12:35:35;;;;;;;5.83;5.33;;;;;;;26.19;48.07;95004.66;6227411;28;103487;-61
2022/06/06 12:38:48;;;;;;;5.90;5.40;;;;;;;26.19;47.86;95015.41;6237454;28;103043;-62
2022/06/06 12:42:03;;;;;;;6.37;5.87;;;;;;;26.16;48.42;95018.75;6237205;28;103033;-61
2022/06/06 12:45:34;;;;;;;6.73;5.97;;;;;;;26.18;48.19;95031.81;6237659;28;103334;-61
2022/06/06 12:49:05;;;;;;;5.67;5.13;;;;;;;26.19;47.85;95025.34;6226614;27;103676;-61
2022/06/06 12:52:26;;;;;;;5.13;4.63;;;;;;;26.20;47.76;95030.38;6237786;28;104011;-61
2022/06/06 12:55:43;;;;;;;4.83;4.37;;;;;;;26.20;47.79;95038.41;6238093;28;103119;-61
2022/06/06 12:58:56;;;;;;;5.07;4.57;;;;;;;26.18;47.93;95027.25;6225917;28;103430;-61
2022/06/06 13:02:03;;;;;;;4.47;4.07;;;;;;;26.15;48.25;95001.09;6218549;28;103497;-61
2022/06/06 13:05:21;;;;;;;3.60;3.40;;;;;;;26.12;47.78;94977.63;6211234;28;103240;-62
2022/06/06 13:08:41;;;;;;;4.10;3.70;;;;;;;26.15;47.90;94970.81;6212554;28;103577;-61
2022/06/06 13:11:51;;;;;;;5.90;3.70;;;;;;;26.17;48.06;94963.97;6205616;28;103381;-61
2022/06/06 13:15:10;;;;;;;4.30;3.90;;;;;;;26.19;47.95;94964.44;6212404;28;103225;-61
2022/06/06 13:18:29;;;;;;;6.33;4.67;;;;;;;26.20;47.86;94973.25;6212711;28;104174;-62
2022/06/06 13:21:50;;;;;;;4.90;4.50;;;;;;;26.19;48.45;94971.69;6202307;27;103913;-61
2022/06/06 13:25:15;;;;;;;5.03;4.53;;;;;;;26.17;48.57;94972.03;6211914;28;103220;-62
2022/06/06 13:28:21;;;;;;;7.70;4.97;;;;;;;26.16;48.07;94961.63;6212439;28;103263;-61
2022/06/06 13:31:37;;;;;;;5.53;5.03;;;;;;;26.13;48.37;94967.66;6208177;28;103170;-61
2022/06/06 13:34:53;;;;;;;5.53;5.00;;;;;;;26.14;48.35;94975.38;6206208;28;103054;-62
2022/06/06 13:38:14;;;;;;;5.40;4.90;;;;;;;26.17;48.47;94992.69;6211214;28;103459;-61
2022/06/06 13:41:39;;;;;;;5.23;4.63;;;;;;;26.15;48.44;94997.63;6211532;28;103673;-61
2022/06/06 13:45:09;;;;;;;5.57;5.00;;;;;;;26.14;47.89;95007.56;6200892;28;104614;-60
2022/06/06 13:48:36;;;;;;;5.93;5.37;;;;;;;26.13;48.07;95014.06;6211323;28;102965;-62
2022/06/06 13:51:51;;;;;;;5.30;4.90;;;;;;;26.11;47.59;95018.19;6211698;28;103345;-62
2022/06/06 13:54:56;;;;;;;5.97;5.43;;;;;;;26.11;47.60;95023.53;6201785;27;103525;-61
2022/06/06 13:58:25;;;;;;;5.57;5.17;;;;;;;26.11;47.65;95036.97;6210378;28;103286;-62
2022/06/06 14:01:47;;;;;;;5.43;5.07;;;;;;;26.11;47.95;95045.78;6225610;28;104362;-62
2022/06/06 14:05:06;;;;;;;7.13;6.53;;;;;;;26.13;47.69;95053.50;6235781;28;103074;-62
2022/06/06 14:08:11;;;;;;;9.60;8.77;;;;;;;26.12;48.09;95060.75;6225156;28;103104;-65
2022/06/06 14:11:33;;;;;;;8.77;8.07;;;;;;;26.10;47.86;95057.63;6234635;28;103156;-61
2022/06/06 14:14:39;;;;;;;8.73;8.03;;;;;;;26.12;48.36;95062.66;6236279;28;104227;-61
2022/06/06 14:17:55;;;;;;;8.93;8.13;;;;;;;26.12;47.98;95068.81;6225961;28;103172;-61
2022/06/06 14:21:00;;;;;;;8.93;8.13;;;;;;;26.14;48.16;95076.53;6235674;28;103571;-62
2022/06/06 14:24:08;;;;;;;8.10;7.40;;;;;;;26.14;48.18;95087.25;6235712;28;103192;-62
2022/06/06 14:27:20;;;;;;;8.70;7.90;;;;;;;26.14;48.41;95097.97;6235440;28;102880;-61
2022/06/06 14:30:30;;;;;;;7.90;7.20;;;;;;;26.14;48.00;95097.97;6224921;28;103182;-61
2022/06/06 14:33:36;;;;;;;8.90;8.03;;;;;;;26.14;47.56;95088.03;6235946;28;103478;-61
2022/06/06 14:36:42;;;;;;;10.30;9.40;;;;;;;26.13;47.58;95086.47;6235028;28;103187;-62
2022/06/06 14:39:49;;;;;;;8.20;7.50;;;;;;;26.13;48.04;95091.06;6229852;28;102990;-62
2022/06/06 14:42:55;;;;;;;8.63;7.93;;;;;;;26.15;47.67;95088.81;6229136;28;103274;-61
2022/06/06 14:46:03;;;;;;;9.30;8.50;;;;;;;26.16;47.45;95095.75;6234939;28;103347;-61
2022/06/06 14:49:07;;;;;;;9.03;8.33;;;;;;;26.17;48.18;95103.47;6234646;28;103156;-62
2022/06/06 14:52:16;;;;;;;9.77;8.83;;;;;;;26.17;48.08;95103.47;6223523;27;103041;-62
2022/06/06 14:55:21;;;;;;;8.00;7.30;;;;;;;26.18;47.65;95080.88;6234509;28;103013;-61
2022/06/06 14:58:30;;;;;;;8.37;7.67;;;;;;;26.20;47.76;95075.97;6234875;28;103009;-62
2022/06/06 15:01:33;;;;;;;10.40;9.57;;;;;;;26.20;48.02;95072.50;6233796;28;102908;-61
2022/06/06 15:04:37;;;;;;;9.67;8.80;;;;;;;26.25;47.64;95075.00;6224428;28;103191;-65
2022/06/06 15:07:46;;;;;;;9.67;8.60;;;;;;;26.26;47.99;95073.88;6235282;28;103243;-65
2022/06/06 15:10:51;;;;;;;12.67;11.57;;;;;;;26.28;47.63;95072.44;6234395;28;103150;-65
2022/06/06 15:13:58;;;;;;;9.40;8.70;;;;;;;26.20;48.52;95059.88;6232876;28;103919;-64
2022/06/06 15:17:05;;;;;;;12.63;11.63;;;;;;;26.21;48.33;95061.47;6233109;28;103110;-65
2022/06/06 15:20:20;;;;;;;9.50;8.50;;;;;;;26.17;47.78;95065.91;6239223;28;103135;-66
2022/06/06 15:23:28;;;;;;;19.00;17.50;;;;;;;26.10;47.96;95071.03;6239753;28;103003;-65
2022/06/06 15:26:38;;;;;;;13.70;12.50;;;;;;;26.08;48.55;95072.50;6228520;28;103163;-66